sensor_id;sensor_type;location;lat;lon;timestamp;P1;durP1;ratioP1;P2;durP2;ratioP2
73428;SDS011;61643;49.564;17.412;2024-02-23T00:01:47;8.70;;;3.90;;
73428;SDS011;61643;49.564;17.412;2024-02-23T00:04:13;9.48;;;5.55;;
73428;SDS011;61643;49.564;17.412;2024-02-23T00:06:39;7.63;;;4.07;;
73428;SDS011;61643;49.564;17.412;2024-02-23T00:09:05;10.23;;;4.80;;
73428;SDS011;61643;49.564;17.412;2024-02-23T00:11:31;9.05;;;4.95;;
73428;SDS011;61643;49.564;17.412;2024-02-23T00:14:05;6.82;;;4.20;;
73428;SDS011;61643;49.564;17.412;2024-02-23T00:16:31;4.72;;;2.97;;
73428;SDS011;61643;49.564;17.412;2024-02-23T00:18:57;8.93;;;4.20;;
73428;SDS011;61643;49.564;17.412;2024-02-23T00:21:23;6.57;;;3.92;;
73428;SDS011;61643;49.564;17.412;2024-02-23T00:23:49;8.68;;;4.20;;
73428;SDS011;61643;49.564;17.412;2024-02-23T00:26:15;9.27;;;4.28;;
73428;SDS011;61643;49.564;17.412;2024-02-23T00:28:41;7.70;;;3.97;;
73428;SDS011;61643;49.564;17.412;2024-02-23T00:31:07;6.60;;;4.05;;
73428;SDS011;61643;49.564;17.412;2024-02-23T00:33:33;8.65;;;4.30;;
73428;SDS011;61643;49.564;17.412;2024-02-23T00:35:59;8.25;;;4.53;;
73428;SDS011;61643;49.564;17.412;2024-02-23T00:38:25;6.53;;;4.15;;
73428;SDS011;61643;49.564;17.412;2024-02-23T00:40:51;4.85;;;2.83;;
73428;SDS011;61643;49.564;17.412;2024-02-23T00:43:18;5.70;;;3.55;;
73428;SDS011;61643;49.564;17.412;2024-02-23T00:45:45;7.93;;;3.67;;
73428;SDS011;61643;49.564;17.412;2024-02-23T00:48:11;6.07;;;3.22;;
73428;SDS011;61643;49.564;17.412;2024-02-23T00:50:38;6.07;;;3.40;;
73428;SDS011;61643;49.564;17.412;2024-02-23T00:53:04;5.65;;;3.40;;
73428;SDS011;61643;49.564;17.412;2024-02-23T00:55:30;8.13;;;4.15;;
73428;SDS011;61643;49.564;17.412;2024-02-23T00:57:56;5.97;;;2.92;;
73428;SDS011;61643;49.564;17.412;2024-02-23T01:00:22;5.18;;;3.90;;
73428;SDS011;61643;49.564;17.412;2024-02-23T01:02:49;4.30;;;3.25;;
73428;SDS011;61643;49.564;17.412;2024-02-23T01:05:14;6.75;;;3.45;;
73428;SDS011;61643;49.564;17.412;2024-02-23T01:07:40;5.70;;;3.10;;
73428;SDS011;61643;49.564;17.412;2024-02-23T01:10:06;7.80;;;3.35;;
73428;SDS011;61643;49.564;17.412;2024-02-23T01:12:32;8.80;;;3.35;;
73428;SDS011;61643;49.564;17.412;2024-02-23T01:14:58;5.05;;;3.10;;
73428;SDS011;61643;49.564;17.412;2024-02-23T01:17:24;8.40;;;3.17;;
73428;SDS011;61643;49.564;17.412;2024-02-23T01:19:50;8.35;;;3.95;;
73428;SDS011;61643;49.564;17.412;2024-02-23T01:22:17;6.70;;;3.72;;
73428;SDS011;61643;49.564;17.412;2024-02-23T01:24:43;6.53;;;3.00;;
73428;SDS011;61643;49.564;17.412;2024-02-23T01:27:09;5.88;;;3.28;;
73428;SDS011;61643;49.564;17.412;2024-02-23T01:29:35;4.55;;;2.95;;
73428;SDS011;61643;49.564;17.412;2024-02-23T01:32:01;4.75;;;3.30;;
73428;SDS011;61643;49.564;17.412;2024-02-23T01:34:27;5.85;;;3.28;;
73428;SDS011;61643;49.564;17.412;2024-02-23T01:36:53;4.45;;;3.10;;
73428;SDS011;61643;49.564;17.412;2024-02-23T01:39:19;3.55;;;2.60;;
73428;SDS011;61643;49.564;17.412;2024-02-23T01:41:45;4.28;;;2.88;;
73428;SDS011;61643;49.564;17.412;2024-02-23T01:44:11;5.25;;;3.70;;
73428;SDS011;61643;49.564;17.412;2024-02-23T01:46:37;4.70;;;3.05;;
73428;SDS011;61643;49.564;17.412;2024-02-23T01:49:03;4.95;;;3.47;;
73428;SDS011;61643;49.564;17.412;2024-02-23T01:51:31;3.55;;;2.38;;
73428;SDS011;61643;49.564;17.412;2024-02-23T01:53:57;4.40;;;2.60;;
73428;SDS011;61643;49.564;17.412;2024-02-23T01:56:23;4.18;;;2.80;;
73428;SDS011;61643;49.564;17.412;2024-02-23T01:58:49;4.28;;;2.75;;
73428;SDS011;61643;49.564;17.412;2024-02-23T02:01:15;3.65;;;2.80;;
73428;SDS011;61643;49.564;17.412;2024-02-23T02:03:41;4.38;;;2.65;;
73428;SDS011;61643;49.564;17.412;2024-02-23T02:06:09;4.40;;;2.95;;
73428;SDS011;61643;49.564;17.412;2024-02-23T02:08:35;7.90;;;3.08;;
73428;SDS011;61643;49.564;17.412;2024-02-23T02:11:02;3.10;;;2.55;;
73428;SDS011;61643;49.564;17.412;2024-02-23T02:13:28;3.67;;;2.63;;
73428;SDS011;61643;49.564;17.412;2024-02-23T02:15:55;5.32;;;2.55;;
73428;SDS011;61643;49.564;17.412;2024-02-23T02:18:23;3.15;;;2.28;;
73428;SDS011;61643;49.564;17.412;2024-02-23T02:20:55;4.47;;;2.00;;
73428;SDS011;61643;49.564;17.412;2024-02-23T02:23:23;5.78;;;2.42;;
73428;SDS011;61643;49.564;17.412;2024-02-23T02:25:56;3.30;;;2.20;;
73428;SDS011;61643;49.564;17.412;2024-02-23T02:28:23;4.85;;;2.47;;
73428;SDS011;61643;49.564;17.412;2024-02-23T02:30:50;5.82;;;2.90;;
73428;SDS011;61643;49.564;17.412;2024-02-23T02:33:16;5.47;;;3.00;;
73428;SDS011;61643;49.564;17.412;2024-02-23T02:35:42;5.50;;;2.95;;
73428;SDS011;61643;49.564;17.412;2024-02-23T02:38:10;6.25;;;2.80;;
73428;SDS011;61643;49.564;17.412;2024-02-23T02:40:36;5.78;;;3.00;;
73428;SDS011;61643;49.564;17.412;2024-02-23T02:43:03;7.68;;;3.90;;
73428;SDS011;61643;49.564;17.412;2024-02-23T02:45:30;9.02;;;4.00;;
73428;SDS011;61643;49.564;17.412;2024-02-23T02:47:55;6.90;;;3.30;;
73428;SDS011;61643;49.564;17.412;2024-02-23T02:50:22;5.97;;;3.10;;
73428;SDS011;61643;49.564;17.412;2024-02-23T02:52:48;5.80;;;2.92;;
73428;SDS011;61643;49.564;17.412;2024-02-23T02:55:14;6.93;;;3.78;;
73428;SDS011;61643;49.564;17.412;2024-02-23T02:57:40;8.30;;;3.83;;
73428;SDS011;61643;49.564;17.412;2024-02-23T03:00:09;5.85;;;2.63;;
73428;SDS011;61643;49.564;17.412;2024-02-23T03:02:35;5.07;;;2.58;;
73428;SDS011;61643;49.564;17.412;2024-02-23T03:05:01;3.55;;;1.98;;
73428;SDS011;61643;49.564;17.412;2024-02-23T03:07:28;7.05;;;2.50;;
73428;SDS011;61643;49.564;17.412;2024-02-23T03:09:54;3.85;;;2.00;;
73428;SDS011;61643;49.564;17.412;2024-02-23T03:12:20;3.50;;;2.10;;
73428;SDS011;61643;49.564;17.412;2024-02-23T03:14:46;3.67;;;2.15;;
73428;SDS011;61643;49.564;17.412;2024-02-23T03:17:12;3.20;;;2.10;;
73428;SDS011;61643;49.564;17.412;2024-02-23T03:19:38;3.65;;;2.47;;
73428;SDS011;61643;49.564;17.412;2024-02-23T03:22:04;5.32;;;2.30;;
73428;SDS011;61643;49.564;17.412;2024-02-23T03:24:30;5.30;;;2.20;;
73428;SDS011;61643;49.564;17.412;2024-02-23T03:26:56;4.70;;;2.58;;
73428;SDS011;61643;49.564;17.412;2024-02-23T03:29:22;3.35;;;2.20;;
73428;SDS011;61643;49.564;17.412;2024-02-23T03:31:57;4.15;;;1.90;;
73428;SDS011;61643;49.564;17.412;2024-02-23T03:34:24;4.15;;;2.40;;
73428;SDS011;61643;49.564;17.412;2024-02-23T03:36:50;4.55;;;2.30;;
73428;SDS011;61643;49.564;17.412;2024-02-23T03:39:16;3.10;;;1.95;;
73428;SDS011;61643;49.564;17.412;2024-02-23T03:41:42;4.53;;;2.10;;
73428;SDS011;61643;49.564;17.412;2024-02-23T03:44:08;4.60;;;2.08;;
73428;SDS011;61643;49.564;17.412;2024-02-23T03:46:34;2.50;;;2.03;;
73428;SDS011;61643;49.564;17.412;2024-02-23T03:49:01;2.65;;;1.73;;
73428;SDS011;61643;49.564;17.412;2024-02-23T03:51:27;2.28;;;1.65;;
73428;SDS011;61643;49.564;17.412;2024-02-23T03:53:52;3.88;;;1.80;;
73428;SDS011;61643;49.564;17.412;2024-02-23T03:56:18;2.90;;;1.77;;
73428;SDS011;61643;49.564;17.412;2024-02-23T03:58:44;4.20;;;2.33;;
73428;SDS011;61643;49.564;17.412;2024-02-23T04:01:10;3.85;;;2.22;;
73428;SDS011;61643;49.564;17.412;2024-02-23T04:03:36;2.78;;;1.75;;
73428;SDS011;61643;49.564;17.412;2024-02-23T04:06:02;2.22;;;1.77;;
73428;SDS011;61643;49.564;17.412;2024-02-23T04:08:28;2.95;;;1.98;;
73428;SDS011;61643;49.564;17.412;2024-02-23T04:10:54;3.10;;;2.10;;
73428;SDS011;61643;49.564;17.412;2024-02-23T04:13:21;3.63;;;1.95;;
73428;SDS011;61643;49.564;17.412;2024-02-23T04:15:47;2.90;;;2.15;;
73428;SDS011;61643;49.564;17.412;2024-02-23T04:18:13;4.28;;;2.08;;
73428;SDS011;61643;49.564;17.412;2024-02-23T04:20:38;2.95;;;2.10;;
73428;SDS011;61643;49.564;17.412;2024-02-23T04:23:04;2.40;;;1.75;;
73428;SDS011;61643;49.564;17.412;2024-02-23T04:25:30;4.28;;;2.10;;
73428;SDS011;61643;49.564;17.412;2024-02-23T04:27:56;2.80;;;2.08;;
73428;SDS011;61643;49.564;17.412;2024-02-23T04:30:22;3.85;;;2.00;;
73428;SDS011;61643;49.564;17.412;2024-02-23T04:32:48;5.07;;;2.70;;
73428;SDS011;61643;49.564;17.412;2024-02-23T04:35:14;2.35;;;1.90;;
73428;SDS011;61643;49.564;17.412;2024-02-23T04:37:43;2.45;;;2.10;;
73428;SDS011;61643;49.564;17.412;2024-02-23T04:40:10;3.95;;;2.30;;
73428;SDS011;61643;49.564;17.412;2024-02-23T04:42:37;3.35;;;2.63;;
73428;SDS011;61643;49.564;17.412;2024-02-23T04:45:04;3.30;;;2.05;;
73428;SDS011;61643;49.564;17.412;2024-02-23T04:47:30;3.08;;;2.08;;
73428;SDS011;61643;49.564;17.412;2024-02-23T04:49:56;3.38;;;2.10;;
73428;SDS011;61643;49.564;17.412;2024-02-23T04:52:22;3.47;;;2.47;;
73428;SDS011;61643;49.564;17.412;2024-02-23T04:54:48;4.30;;;2.35;;
73428;SDS011;61643;49.564;17.412;2024-02-23T04:57:14;3.33;;;2.38;;
73428;SDS011;61643;49.564;17.412;2024-02-23T04:59:40;2.50;;;2.17;;
73428;SDS011;61643;49.564;17.412;2024-02-23T05:02:06;3.53;;;1.98;;
73428;SDS011;61643;49.564;17.412;2024-02-23T05:04:32;3.28;;;2.28;;
73428;SDS011;61643;49.564;17.412;2024-02-23T05:06:58;3.10;;;1.98;;
73428;SDS011;61643;49.564;17.412;2024-02-23T05:09:24;3.72;;;2.17;;
73428;SDS011;61643;49.564;17.412;2024-02-23T05:11:50;3.20;;;2.28;;
73428;SDS011;61643;49.564;17.412;2024-02-23T05:14:16;3.72;;;2.55;;
73428;SDS011;61643;49.564;17.412;2024-02-23T05:16:42;4.25;;;2.30;;
73428;SDS011;61643;49.564;17.412;2024-02-23T05:19:08;4.32;;;2.53;;
73428;SDS011;61643;49.564;17.412;2024-02-23T05:21:34;3.92;;;2.72;;
73428;SDS011;61643;49.564;17.412;2024-02-23T05:24:00;3.38;;;2.30;;
73428;SDS011;61643;49.564;17.412;2024-02-23T05:26:26;3.42;;;2.33;;
73428;SDS011;61643;49.564;17.412;2024-02-23T05:28:52;3.75;;;2.10;;
73428;SDS011;61643;49.564;17.412;2024-02-23T05:31:19;4.25;;;2.53;;
73428;SDS011;61643;49.564;17.412;2024-02-23T05:33:45;3.50;;;2.22;;
73428;SDS011;61643;49.564;17.412;2024-02-23T05:36:11;3.67;;;2.40;;
73428;SDS011;61643;49.564;17.412;2024-02-23T05:38:37;3.17;;;2.15;;
73428;SDS011;61643;49.564;17.412;2024-02-23T05:41:03;4.10;;;2.20;;
73428;SDS011;61643;49.564;17.412;2024-02-23T05:43:30;3.50;;;2.28;;
73428;SDS011;61643;49.564;17.412;2024-02-23T05:45:56;4.75;;;2.90;;
73428;SDS011;61643;49.564;17.412;2024-02-23T05:48:24;4.38;;;3.00;;
73428;SDS011;61643;49.564;17.412;2024-02-23T05:50:50;4.60;;;2.90;;
73428;SDS011;61643;49.564;17.412;2024-02-23T05:53:16;5.70;;;3.10;;
73428;SDS011;61643;49.564;17.412;2024-02-23T05:55:41;5.18;;;2.85;;
73428;SDS011;61643;49.564;17.412;2024-02-23T05:58:07;3.92;;;2.78;;
73428;SDS011;61643;49.564;17.412;2024-02-23T06:00:35;4.53;;;2.95;;
73428;SDS011;61643;49.564;17.412;2024-02-23T06:03:01;4.55;;;2.40;;
73428;SDS011;61643;49.564;17.412;2024-02-23T06:05:27;4.53;;;2.83;;
73428;SDS011;61643;49.564;17.412;2024-02-23T06:07:52;5.13;;;2.72;;
73428;SDS011;61643;49.564;17.412;2024-02-23T06:10:18;5.05;;;2.85;;
73428;SDS011;61643;49.564;17.412;2024-02-23T06:12:44;4.03;;;2.67;;
73428;SDS011;61643;49.564;17.412;2024-02-23T06:15:10;4.55;;;2.67;;
73428;SDS011;61643;49.564;17.412;2024-02-23T06:17:37;5.57;;;2.88;;
73428;SDS011;61643;49.564;17.412;2024-02-23T06:20:05;8.35;;;5.85;;
73428;SDS011;61643;49.564;17.412;2024-02-23T06:22:33;9.55;;;5.88;;
73428;SDS011;61643;49.564;17.412;2024-02-23T06:24:59;7.40;;;4.38;;
73428;SDS011;61643;49.564;17.412;2024-02-23T06:27:25;5.63;;;3.78;;
73428;SDS011;61643;49.564;17.412;2024-02-23T06:29:53;5.07;;;3.35;;
73428;SDS011;61643;49.564;17.412;2024-02-23T06:32:19;6.95;;;3.40;;
73428;SDS011;61643;49.564;17.412;2024-02-23T06:34:45;4.70;;;3.30;;
73428;SDS011;61643;49.564;17.412;2024-02-23T06:37:11;6.45;;;3.28;;
73428;SDS011;61643;49.564;17.412;2024-02-23T06:39:38;5.50;;;3.00;;
73428;SDS011;61643;49.564;17.412;2024-02-23T06:42:03;4.53;;;2.88;;
73428;SDS011;61643;49.564;17.412;2024-02-23T06:44:30;4.47;;;3.33;;
73428;SDS011;61643;49.564;17.412;2024-02-23T06:46:56;3.40;;;2.67;;
73428;SDS011;61643;49.564;17.412;2024-02-23T06:49:22;4.22;;;2.83;;
73428;SDS011;61643;49.564;17.412;2024-02-23T06:51:48;5.28;;;3.58;;
73428;SDS011;61643;49.564;17.412;2024-02-23T06:54:14;5.75;;;3.72;;
73428;SDS011;61643;49.564;17.412;2024-02-23T06:56:40;5.05;;;3.60;;
73428;SDS011;61643;49.564;17.412;2024-02-23T06:59:06;5.55;;;3.70;;
73428;SDS011;61643;49.564;17.412;2024-02-23T07:01:32;4.70;;;3.55;;
73428;SDS011;61643;49.564;17.412;2024-02-23T07:04:00;8.05;;;4.22;;
73428;SDS011;61643;49.564;17.412;2024-02-23T07:06:26;6.47;;;4.15;;
73428;SDS011;61643;49.564;17.412;2024-02-23T07:08:54;5.35;;;3.67;;
73428;SDS011;61643;49.564;17.412;2024-02-23T07:11:20;6.30;;;3.83;;
73428;SDS011;61643;49.564;17.412;2024-02-23T07:13:46;6.57;;;4.03;;
73428;SDS011;61643;49.564;17.412;2024-02-23T07:16:12;7.40;;;3.85;;
73428;SDS011;61643;49.564;17.412;2024-02-23T07:18:38;6.55;;;3.83;;
73428;SDS011;61643;49.564;17.412;2024-02-23T07:21:06;8.38;;;4.68;;
73428;SDS011;61643;49.564;17.412;2024-02-23T07:23:32;7.45;;;4.10;;
73428;SDS011;61643;49.564;17.412;2024-02-23T07:25:58;11.32;;;5.05;;
73428;SDS011;61643;49.564;17.412;2024-02-23T07:28:24;8.18;;;5.05;;
73428;SDS011;61643;49.564;17.412;2024-02-23T07:30:50;8.35;;;4.70;;
73428;SDS011;61643;49.564;17.412;2024-02-23T07:33:16;8.18;;;4.38;;
73428;SDS011;61643;49.564;17.412;2024-02-23T07:35:42;9.27;;;4.60;;
73428;SDS011;61643;49.564;17.412;2024-02-23T07:38:08;9.30;;;5.25;;
73428;SDS011;61643;49.564;17.412;2024-02-23T07:40:34;8.75;;;4.95;;
73428;SDS011;61643;49.564;17.412;2024-02-23T07:43:00;7.70;;;4.65;;
73428;SDS011;61643;49.564;17.412;2024-02-23T07:45:26;7.95;;;4.30;;
73428;SDS011;61643;49.564;17.412;2024-02-23T07:47:52;8.77;;;4.55;;
73428;SDS011;61643;49.564;17.412;2024-02-23T07:50:18;8.13;;;5.03;;
73428;SDS011;61643;49.564;17.412;2024-02-23T07:52:44;7.18;;;4.55;;
73428;SDS011;61643;49.564;17.412;2024-02-23T07:55:10;6.43;;;4.07;;
73428;SDS011;61643;49.564;17.412;2024-02-23T07:57:36;7.35;;;3.70;;
73428;SDS011;61643;49.564;17.412;2024-02-23T08:02:31;9.68;;;4.55;;
73428;SDS011;61643;49.564;17.412;2024-02-23T08:04:57;6.60;;;4.15;;
73428;SDS011;61643;49.564;17.412;2024-02-23T08:07:22;6.28;;;4.03;;
73428;SDS011;61643;49.564;17.412;2024-02-23T08:09:48;6.68;;;4.50;;
73428;SDS011;61643;49.564;17.412;2024-02-23T08:12:14;5.57;;;3.70;;
73428;SDS011;61643;49.564;17.412;2024-02-23T08:14:41;5.88;;;3.80;;
73428;SDS011;61643;49.564;17.412;2024-02-23T08:17:08;6.82;;;4.40;;
73428;SDS011;61643;49.564;17.412;2024-02-23T08:19:33;6.13;;;4.05;;
73428;SDS011;61643;49.564;17.412;2024-02-23T08:21:59;8.23;;;5.30;;
73428;SDS011;61643;49.564;17.412;2024-02-23T08:24:25;10.32;;;5.78;;
73428;SDS011;61643;49.564;17.412;2024-02-23T08:26:52;9.50;;;5.50;;
73428;SDS011;61643;49.564;17.412;2024-02-23T08:29:18;9.95;;;5.38;;
73428;SDS011;61643;49.564;17.412;2024-02-23T08:31:44;11.18;;;5.85;;
73428;SDS011;61643;49.564;17.412;2024-02-23T08:34:10;9.45;;;5.88;;
73428;SDS011;61643;49.564;17.412;2024-02-23T08:36:36;9.93;;;5.28;;
73428;SDS011;61643;49.564;17.412;2024-02-23T08:39:02;9.27;;;5.28;;
73428;SDS011;61643;49.564;17.412;2024-02-23T08:41:28;10.52;;;5.45;;
73428;SDS011;61643;49.564;17.412;2024-02-23T08:43:54;9.95;;;5.70;;
73428;SDS011;61643;49.564;17.412;2024-02-23T08:46:21;10.70;;;5.90;;
73428;SDS011;61643;49.564;17.412;2024-02-23T08:48:47;9.35;;;5.22;;
73428;SDS011;61643;49.564;17.412;2024-02-23T08:51:13;11.43;;;6.43;;
73428;SDS011;61643;49.564;17.412;2024-02-23T08:53:39;9.55;;;5.53;;
73428;SDS011;61643;49.564;17.412;2024-02-23T08:56:06;8.70;;;5.13;;
73428;SDS011;61643;49.564;17.412;2024-02-23T08:58:33;8.07;;;5.00;;
73428;SDS011;61643;49.564;17.412;2024-02-23T09:00:59;7.80;;;4.95;;
73428;SDS011;61643;49.564;17.412;2024-02-23T09:03:25;7.05;;;4.50;;
73428;SDS011;61643;49.564;17.412;2024-02-23T09:05:51;7.28;;;4.10;;
73428;SDS011;61643;49.564;17.412;2024-02-23T09:08:17;5.40;;;3.78;;
73428;SDS011;61643;49.564;17.412;2024-02-23T09:10:43;5.85;;;3.90;;
73428;SDS011;61643;49.564;17.412;2024-02-23T09:13:10;5.07;;;3.80;;
73428;SDS011;61643;49.564;17.412;2024-02-23T09:15:36;5.18;;;3.80;;
73428;SDS011;61643;49.564;17.412;2024-02-23T09:18:02;6.25;;;4.05;;
73428;SDS011;61643;49.564;17.412;2024-02-23T09:20:28;5.28;;;3.95;;
73428;SDS011;61643;49.564;17.412;2024-02-23T09:22:54;5.53;;;4.22;;
73428;SDS011;61643;49.564;17.412;2024-02-23T09:25:20;5.93;;;4.03;;
73428;SDS011;61643;49.564;17.412;2024-02-23T09:27:46;5.60;;;4.05;;
73428;SDS011;61643;49.564;17.412;2024-02-23T09:30:12;5.93;;;4.03;;
73428;SDS011;61643;49.564;17.412;2024-02-23T09:32:40;5.72;;;4.03;;
73428;SDS011;61643;49.564;17.412;2024-02-23T09:35:06;5.53;;;3.97;;
73428;SDS011;61643;49.564;17.412;2024-02-23T09:37:32;6.75;;;4.20;;
73428;SDS011;61643;49.564;17.412;2024-02-23T09:39:58;5.05;;;3.83;;
73428;SDS011;61643;49.564;17.412;2024-02-23T09:42:24;5.57;;;4.47;;
73428;SDS011;61643;49.564;17.412;2024-02-23T09:44:54;5.93;;;4.00;;
73428;SDS011;61643;49.564;17.412;2024-02-23T09:47:25;5.53;;;3.95;;
73428;SDS011;61643;49.564;17.412;2024-02-23T09:49:53;6.38;;;4.20;;
73428;SDS011;61643;49.564;17.412;2024-02-23T09:52:19;4.50;;;3.40;;
73428;SDS011;61643;49.564;17.412;2024-02-23T09:54:46;5.70;;;4.07;;
73428;SDS011;61643;49.564;17.412;2024-02-23T09:57:12;6.68;;;4.13;;
73428;SDS011;61643;49.564;17.412;2024-02-23T09:59:41;6.88;;;4.10;;
73428;SDS011;61643;49.564;17.412;2024-02-23T10:02:11;5.18;;;3.85;;
73428;SDS011;61643;49.564;17.412;2024-02-23T10:04:41;6.00;;;4.20;;
73428;SDS011;61643;49.564;17.412;2024-02-23T10:07:14;8.80;;;4.35;;
73428;SDS011;61643;49.564;17.412;2024-02-23T10:09:41;6.07;;;4.03;;
73428;SDS011;61643;49.564;17.412;2024-02-23T10:12:08;6.40;;;4.32;;
73428;SDS011;61643;49.564;17.412;2024-02-23T10:14:34;6.78;;;4.47;;
73428;SDS011;61643;49.564;17.412;2024-02-23T10:17:00;9.38;;;5.15;;
73428;SDS011;61643;49.564;17.412;2024-02-23T10:19:27;6.82;;;5.00;;
73428;SDS011;61643;49.564;17.412;2024-02-23T10:21:55;7.82;;;4.50;;
73428;SDS011;61643;49.564;17.412;2024-02-23T10:24:22;6.75;;;4.75;;
73428;SDS011;61643;49.564;17.412;2024-02-23T10:26:49;7.85;;;4.78;;
73428;SDS011;61643;49.564;17.412;2024-02-23T10:29:15;7.32;;;4.65;;
73428;SDS011;61643;49.564;17.412;2024-02-23T10:31:41;7.28;;;5.00;;
73428;SDS011;61643;49.564;17.412;2024-02-23T10:34:08;5.97;;;3.90;;
73428;SDS011;61643;49.564;17.412;2024-02-23T10:36:42;4.45;;;2.45;;
73428;SDS011;61643;49.564;17.412;2024-02-23T10:39:08;4.57;;;2.40;;
73428;SDS011;61643;49.564;17.412;2024-02-23T10:41:35;3.60;;;2.45;;
73428;SDS011;61643;49.564;17.412;2024-02-23T10:46:32;2.92;;;1.80;;
73428;SDS011;61643;49.564;17.412;2024-02-23T10:48:58;4.13;;;1.92;;
73428;SDS011;61643;49.564;17.412;2024-02-23T10:51:25;4.53;;;2.10;;
73428;SDS011;61643;49.564;17.412;2024-02-23T10:53:51;3.55;;;2.20;;
73428;SDS011;61643;49.564;17.412;2024-02-23T10:56:18;2.83;;;1.83;;
73428;SDS011;61643;49.564;17.412;2024-02-23T10:58:45;2.42;;;1.63;;
73428;SDS011;61643;49.564;17.412;2024-02-23T11:01:11;2.38;;;1.70;;
73428;SDS011;61643;49.564;17.412;2024-02-23T11:03:40;2.03;;;1.38;;
73428;SDS011;61643;49.564;17.412;2024-02-23T11:06:08;1.55;;;1.20;;
73428;SDS011;61643;49.564;17.412;2024-02-23T11:08:34;1.73;;;1.10;;
73428;SDS011;61643;49.564;17.412;2024-02-23T11:11:10;2.20;;;0.90;;
73428;SDS011;61643;49.564;17.412;2024-02-23T11:13:39;1.00;;;0.80;;
73428;SDS011;61643;49.564;17.412;2024-02-23T11:16:06;1.63;;;0.80;;
73428;SDS011;61643;49.564;17.412;2024-02-23T11:18:36;1.25;;;0.90;;
73428;SDS011;61643;49.564;17.412;2024-02-23T11:21:05;1.42;;;0.95;;
73428;SDS011;61643;49.564;17.412;2024-02-23T11:23:41;2.45;;;1.27;;
73428;SDS011;61643;49.564;17.412;2024-02-23T11:28:43;2.03;;;1.10;;
73428;SDS011;61643;49.564;17.412;2024-02-23T11:31:13;2.30;;;1.08;;
73428;SDS011;61643;49.564;17.412;2024-02-23T11:33:40;2.40;;;1.50;;
73428;SDS011;61643;49.564;17.412;2024-02-23T11:36:07;1.55;;;1.13;;
73428;SDS011;61643;49.564;17.412;2024-02-23T11:38:33;2.33;;;1.45;;
73428;SDS011;61643;49.564;17.412;2024-02-23T11:41:00;2.85;;;1.42;;
73428;SDS011;61643;49.564;17.412;2024-02-23T11:43:27;2.08;;;1.27;;
73428;SDS011;61643;49.564;17.412;2024-02-23T11:45:53;2.45;;;1.42;;
73428;SDS011;61643;49.564;17.412;2024-02-23T11:48:19;2.10;;;1.20;;
73428;SDS011;61643;49.564;17.412;2024-02-23T11:50:49;1.30;;;1.20;;
73428;SDS011;61643;49.564;17.412;2024-02-23T11:53:16;1.80;;;1.30;;
73428;SDS011;61643;49.564;17.412;2024-02-23T11:55:42;2.45;;;1.23;;
73428;SDS011;61643;49.564;17.412;2024-02-23T11:58:08;1.30;;;1.08;;
73428;SDS011;61643;49.564;17.412;2024-02-23T12:00:34;2.08;;;1.10;;
73428;SDS011;61643;49.564;17.412;2024-02-23T12:03:01;1.25;;;0.90;;
73428;SDS011;61643;49.564;17.412;2024-02-23T12:05:28;1.35;;;0.93;;
73428;SDS011;61643;49.564;17.412;2024-02-23T12:07:54;1.50;;;1.02;;
73428;SDS011;61643;49.564;17.412;2024-02-23T12:10:20;4.03;;;1.15;;
73428;SDS011;61643;49.564;17.412;2024-02-23T12:12:46;2.60;;;1.50;;
73428;SDS011;61643;49.564;17.412;2024-02-23T12:15:12;4.90;;;1.40;;
73428;SDS011;61643;49.564;17.412;2024-02-23T12:17:46;2.35;;;1.30;;
73428;SDS011;61643;49.564;17.412;2024-02-23T12:20:15;1.40;;;0.82;;
73428;SDS011;61643;49.564;17.412;2024-02-23T12:22:41;1.65;;;1.08;;
73428;SDS011;61643;49.564;17.412;2024-02-23T12:25:08;0.85;;;0.75;;
73428;SDS011;61643;49.564;17.412;2024-02-23T12:27:34;1.25;;;0.80;;
73428;SDS011;61643;49.564;17.412;2024-02-23T12:30:00;1.33;;;0.68;;
73428;SDS011;61643;49.564;17.412;2024-02-23T12:32:26;0.60;;;0.60;;
73428;SDS011;61643;49.564;17.412;2024-02-23T12:34:52;0.77;;;0.55;;
73428;SDS011;61643;49.564;17.412;2024-02-23T12:37:18;0.60;;;0.60;;
73428;SDS011;61643;49.564;17.412;2024-02-23T12:39:44;1.05;;;0.68;;
73428;SDS011;61643;49.564;17.412;2024-02-23T12:42:10;2.05;;;0.65;;
73428;SDS011;61643;49.564;17.412;2024-02-23T12:44:36;0.77;;;0.60;;
73428;SDS011;61643;49.564;17.412;2024-02-23T12:47:02;0.60;;;0.60;;
73428;SDS011;61643;49.564;17.412;2024-02-23T12:49:28;0.98;;;0.50;;
73428;SDS011;61643;49.564;17.412;2024-02-23T12:51:55;1.50;;;0.50;;
73428;SDS011;61643;49.564;17.412;2024-02-23T12:54:21;1.33;;;0.50;;
73428;SDS011;61643;49.564;17.412;2024-02-23T12:56:47;0.65;;;0.47;;
73428;SDS011;61643;49.564;17.412;2024-02-23T12:59:13;0.93;;;0.40;;
73428;SDS011;61643;49.564;17.412;2024-02-23T13:01:39;1.20;;;0.60;;
73428;SDS011;61643;49.564;17.412;2024-02-23T13:04:05;0.93;;;0.40;;
73428;SDS011;61643;49.564;17.412;2024-02-23T13:06:38;0.55;;;0.40;;
73428;SDS011;61643;49.564;17.412;2024-02-23T13:09:05;0.28;;;0.20;;
73428;SDS011;61643;49.564;17.412;2024-02-23T13:11:37;1.38;;;0.40;;
73428;SDS011;61643;49.564;17.412;2024-02-23T13:14:04;0.65;;;0.50;;
73428;SDS011;61643;49.564;17.412;2024-02-23T13:16:30;1.20;;;0.40;;
73428;SDS011;61643;49.564;17.412;2024-02-23T13:18:55;0.90;;;0.52;;
73428;SDS011;61643;49.564;17.412;2024-02-23T13:21:21;1.30;;;0.50;;
73428;SDS011;61643;49.564;17.412;2024-02-23T13:23:48;1.20;;;0.52;;
73428;SDS011;61643;49.564;17.412;2024-02-23T13:26:14;0.90;;;0.40;;
73428;SDS011;61643;49.564;17.412;2024-02-23T13:28:43;0.93;;;0.32;;
73428;SDS011;61643;49.564;17.412;2024-02-23T13:31:10;1.27;;;0.60;;
73428;SDS011;61643;49.564;17.412;2024-02-23T13:33:36;1.98;;;1.00;;
73428;SDS011;61643;49.564;17.412;2024-02-23T13:36:02;0.95;;;0.80;;
73428;SDS011;61643;49.564;17.412;2024-02-23T13:38:28;1.48;;;0.80;;
73428;SDS011;61643;49.564;17.412;2024-02-23T13:40:54;2.97;;;1.65;;
73428;SDS011;61643;49.564;17.412;2024-02-23T13:43:20;3.42;;;1.27;;
73428;SDS011;61643;49.564;17.412;2024-02-23T13:45:50;2.00;;;1.10;;
73428;SDS011;61643;49.564;17.412;2024-02-23T13:48:17;1.40;;;1.10;;
73428;SDS011;61643;49.564;17.412;2024-02-23T13:50:45;2.38;;;1.00;;
73428;SDS011;61643;49.564;17.412;2024-02-23T13:53:12;1.60;;;1.10;;
73428;SDS011;61643;49.564;17.412;2024-02-23T13:55:38;3.80;;;1.60;;
73428;SDS011;61643;49.564;17.412;2024-02-23T13:58:05;3.10;;;2.10;;
73428;SDS011;61643;49.564;17.412;2024-02-23T14:00:31;1.63;;;1.20;;
73428;SDS011;61643;49.564;17.412;2024-02-23T14:02:57;2.25;;;1.52;;
73428;SDS011;61643;49.564;17.412;2024-02-23T14:05:23;2.63;;;1.38;;
73428;SDS011;61643;49.564;17.412;2024-02-23T14:07:51;2.17;;;1.50;;
73428;SDS011;61643;49.564;17.412;2024-02-23T14:10:20;2.45;;;1.50;;
73428;SDS011;61643;49.564;17.412;2024-02-23T14:12:46;2.30;;;1.27;;
73428;SDS011;61643;49.564;17.412;2024-02-23T14:15:12;2.08;;;1.42;;
73428;SDS011;61643;49.564;17.412;2024-02-23T14:17:38;2.95;;;1.40;;
73428;SDS011;61643;49.564;17.412;2024-02-23T14:20:04;1.58;;;1.20;;
73428;SDS011;61643;49.564;17.412;2024-02-23T14:22:32;2.30;;;1.25;;
73428;SDS011;61643;49.564;17.412;2024-02-23T14:24:58;3.55;;;1.33;;
73428;SDS011;61643;49.564;17.412;2024-02-23T14:27:24;2.92;;;1.50;;
73428;SDS011;61643;49.564;17.412;2024-02-23T14:29:50;2.35;;;1.80;;
73428;SDS011;61643;49.564;17.412;2024-02-23T14:32:16;2.33;;;1.88;;
73428;SDS011;61643;49.564;17.412;2024-02-23T14:34:43;2.58;;;1.67;;
73428;SDS011;61643;49.564;17.412;2024-02-23T14:37:09;2.83;;;1.25;;